sensor_id;sensor_type;location;lat;lon;timestamp;P1;durP1;ratioP1;P2;durP2;ratioP2
84933;SDS011;75195;56.858;41.422;2024-01-15T00:00:52;3.10;;;1.45;;
84933;SDS011;75195;56.858;41.422;2024-01-15T00:03:19;4.57;;;2.70;;
84933;SDS011;75195;56.858;41.422;2024-01-15T00:05:45;5.60;;;1.48;;
84933;SDS011;75195;56.858;41.422;2024-01-15T00:08:11;9.48;;;2.90;;
84933;SDS011;75195;56.858;41.422;2024-01-15T00:10:37;8.23;;;3.72;;
84933;SDS011;75195;56.858;41.422;2024-01-15T00:13:06;6.68;;;3.20;;
84933;SDS011;75195;56.858;41.422;2024-01-15T00:15:32;9.13;;;3.60;;
84933;SDS011;75195;56.858;41.422;2024-01-15T00:17:58;9.68;;;3.33;;
84933;SDS011;75195;56.858;41.422;2024-01-15T00:20:24;7.03;;;3.00;;
84933;SDS011;75195;56.858;41.422;2024-01-15T00:22:50;2.67;;;1.92;;
84933;SDS011;75195;56.858;41.422;2024-01-15T00:25:16;4.28;;;1.48;;
84933;SDS011;75195;56.858;41.422;2024-01-15T00:27:43;3.15;;;1.88;;
84933;SDS011;75195;56.858;41.422;2024-01-15T00:30:10;2.55;;;1.10;;
84933;SDS011;75195;56.858;41.422;2024-01-15T00:32:36;2.40;;;1.17;;
84933;SDS011;75195;56.858;41.422;2024-01-15T00:35:02;2.17;;;0.93;;
84933;SDS011;75195;56.858;41.422;2024-01-15T00:37:29;2.88;;;1.20;;
84933;SDS011;75195;56.858;41.422;2024-01-15T00:39:55;7.72;;;2.17;;
84933;SDS011;75195;56.858;41.422;2024-01-15T00:42:21;3.65;;;1.98;;
84933;SDS011;75195;56.858;41.422;2024-01-15T00:44:48;2.85;;;1.35;;
84933;SDS011;75195;56.858;41.422;2024-01-15T00:47:14;3.42;;;1.88;;
84933;SDS011;75195;56.858;41.422;2024-01-15T00:49:41;4.45;;;1.95;;
84933;SDS011;75195;56.858;41.422;2024-01-15T00:52:07;3.72;;;1.50;;
84933;SDS011;75195;56.858;41.422;2024-01-15T00:54:33;2.65;;;1.65;;
84933;SDS011;75195;56.858;41.422;2024-01-15T00:56:59;4.10;;;2.03;;
84933;SDS011;75195;56.858;41.422;2024-01-15T00:59:26;3.05;;;1.30;;
84933;SDS011;75195;56.858;41.422;2024-01-15T01:01:52;1.38;;;1.13;;
84933;SDS011;75195;56.858;41.422;2024-01-15T01:04:18;1.85;;;1.10;;
84933;SDS011;75195;56.858;41.422;2024-01-15T01:06:44;6.13;;;1.98;;
84933;SDS011;75195;56.858;41.422;2024-01-15T01:09:10;3.15;;;1.23;;
84933;SDS011;75195;56.858;41.422;2024-01-15T01:11:37;6.53;;;2.00;;
84933;SDS011;75195;56.858;41.422;2024-01-15T01:14:03;4.35;;;1.65;;
84933;SDS011;75195;56.858;41.422;2024-01-15T01:16:29;2.42;;;1.02;;
84933;SDS011;75195;56.858;41.422;2024-01-15T01:18:56;2.63;;;1.70;;
84933;SDS011;75195;56.858;41.422;2024-01-15T01:21:22;1.73;;;0.98;;
84933;SDS011;75195;56.858;41.422;2024-01-15T01:23:49;8.85;;;1.63;;
84933;SDS011;75195;56.858;41.422;2024-01-15T01:26:15;2.88;;;1.38;;
84933;SDS011;75195;56.858;41.422;2024-01-15T01:28:43;2.30;;;2.05;;
84933;SDS011;75195;56.858;41.422;2024-01-15T01:31:09;2.92;;;1.65;;
84933;SDS011;75195;56.858;41.422;2024-01-15T01:33:37;7.40;;;1.75;;
84933;SDS011;75195;56.858;41.422;2024-01-15T01:36:07;3.17;;;1.58;;
84933;SDS011;75195;56.858;41.422;2024-01-15T01:38:34;2.22;;;1.13;;
84933;SDS011;75195;56.858;41.422;2024-01-15T01:41:00;4.90;;;2.15;;
84933;SDS011;75195;56.858;41.422;2024-01-15T01:43:26;1.85;;;0.88;;
84933;SDS011;75195;56.858;41.422;2024-01-15T01:45:52;2.17;;;1.20;;
84933;SDS011;75195;56.858;41.422;2024-01-15T01:48:20;2.75;;;1.63;;
84933;SDS011;75195;56.858;41.422;2024-01-15T01:50:47;4.15;;;1.83;;
84933;SDS011;75195;56.858;41.422;2024-01-15T01:53:13;2.85;;;1.77;;
84933;SDS011;75195;56.858;41.422;2024-01-15T01:55:39;4.07;;;1.52;;
84933;SDS011;75195;56.858;41.422;2024-01-15T01:58:06;4.40;;;1.65;;
84933;SDS011;75195;56.858;41.422;2024-01-15T02:00:32;2.58;;;1.40;;
84933;SDS011;75195;56.858;41.422;2024-01-15T02:02:59;2.00;;;1.58;;
84933;SDS011;75195;56.858;41.422;2024-01-15T02:05:26;2.10;;;1.25;;
84933;SDS011;75195;56.858;41.422;2024-01-15T02:07:52;2.10;;;1.17;;
84933;SDS011;75195;56.858;41.422;2024-01-15T02:10:19;4.78;;;1.42;;
84933;SDS011;75195;56.858;41.422;2024-01-15T02:12:45;5.05;;;2.00;;
84933;SDS011;75195;56.858;41.422;2024-01-15T02:15:14;1.92;;;1.40;;
84933;SDS011;75195;56.858;41.422;2024-01-15T02:18:22;2.53;;;1.38;;
84933;SDS011;75195;56.858;41.422;2024-01-15T02:20:31;4.70;;;1.25;;
84933;SDS011;75195;56.858;41.422;2024-01-15T02:23:07;1.92;;;0.95;;
84933;SDS011;75195;56.858;41.422;2024-01-15T02:25:34;3.03;;;1.75;;
84933;SDS011;75195;56.858;41.422;2024-01-15T02:28:01;2.35;;;1.13;;
84933;SDS011;75195;56.858;41.422;2024-01-15T02:30:28;2.30;;;1.15;;
84933;SDS011;75195;56.858;41.422;2024-01-15T02:32:54;3.78;;;2.30;;
84933;SDS011;75195;56.858;41.422;2024-01-15T02:35:20;3.25;;;1.30;;
84933;SDS011;75195;56.858;41.422;2024-01-15T02:37:47;2.65;;;1.55;;
84933;SDS011;75195;56.858;41.422;2024-01-15T02:40:13;3.10;;;1.05;;
84933;SDS011;75195;56.858;41.422;2024-01-15T02:42:39;3.00;;;0.93;;
84933;SDS011;75195;56.858;41.422;2024-01-15T02:45:05;1.98;;;1.08;;
84933;SDS011;75195;56.858;41.422;2024-01-15T02:47:32;3.33;;;1.52;;
84933;SDS011;75195;56.858;41.422;2024-01-15T02:49:58;3.42;;;1.67;;
84933;SDS011;75195;56.858;41.422;2024-01-15T02:52:24;5.32;;;1.52;;
84933;SDS011;75195;56.858;41.422;2024-01-15T02:57:35;3.50;;;1.75;;
84933;SDS011;75195;56.858;41.422;2024-01-15T03:00:02;2.65;;;1.23;;
84933;SDS011;75195;56.858;41.422;2024-01-15T03:05:15;4.00;;;1.10;;
84933;SDS011;75195;56.858;41.422;2024-01-15T03:07:42;2.30;;;1.00;;
84933;SDS011;75195;56.858;41.422;2024-01-15T03:10:08;4.80;;;1.65;;
84933;SDS011;75195;56.858;41.422;2024-01-15T03:15:20;8.15;;;1.20;;
84933;SDS011;75195;56.858;41.422;2024-01-15T03:17:46;2.90;;;1.58;;
84933;SDS011;75195;56.858;41.422;2024-01-15T03:20:12;4.28;;;1.70;;
84933;SDS011;75195;56.858;41.422;2024-01-15T03:22:38;2.75;;;0.98;;
84933;SDS011;75195;56.858;41.422;2024-01-15T03:25:05;2.72;;;1.48;;
84933;SDS011;75195;56.858;41.422;2024-01-15T03:27:32;1.70;;;1.05;;
84933;SDS011;75195;56.858;41.422;2024-01-15T03:29:58;2.90;;;1.90;;
84933;SDS011;75195;56.858;41.422;2024-01-15T03:32:24;2.05;;;1.52;;
84933;SDS011;75195;56.858;41.422;2024-01-15T03:34:50;3.47;;;2.10;;
84933;SDS011;75195;56.858;41.422;2024-01-15T03:37:18;5.13;;;1.45;;
84933;SDS011;75195;56.858;41.422;2024-01-15T03:39:45;3.28;;;2.03;;
84933;SDS011;75195;56.858;41.422;2024-01-15T03:44:56;3.20;;;1.15;;
84933;SDS011;75195;56.858;41.422;2024-01-15T03:47:22;1.70;;;1.00;;
84933;SDS011;75195;56.858;41.422;2024-01-15T03:49:48;2.72;;;1.33;;
84933;SDS011;75195;56.858;41.422;2024-01-15T03:54:59;4.60;;;1.30;;
84933;SDS011;75195;56.858;41.422;2024-01-15T03:57:25;4.70;;;2.00;;
84933;SDS011;75195;56.858;41.422;2024-01-15T03:59:52;1.83;;;0.90;;
84933;SDS011;75195;56.858;41.422;2024-01-15T04:02:18;2.83;;;1.65;;
84933;SDS011;75195;56.858;41.422;2024-01-15T04:04:44;3.55;;;1.42;;
84933;SDS011;75195;56.858;41.422;2024-01-15T04:07:10;13.15;;;1.25;;
84933;SDS011;75195;56.858;41.422;2024-01-15T04:09:37;3.15;;;1.50;;
84933;SDS011;75195;56.858;41.422;2024-01-15T04:12:03;3.50;;;1.73;;
84933;SDS011;75195;56.858;41.422;2024-01-15T04:14:30;2.63;;;1.02;;
84933;SDS011;75195;56.858;41.422;2024-01-15T04:16:56;3.25;;;1.13;;
84933;SDS011;75195;56.858;41.422;2024-01-15T04:19:22;3.13;;;1.77;;
84933;SDS011;75195;56.858;41.422;2024-01-15T04:21:48;3.35;;;1.27;;
84933;SDS011;75195;56.858;41.422;2024-01-15T04:24:15;2.65;;;1.70;;
84933;SDS011;75195;56.858;41.422;2024-01-15T04:26:43;5.40;;;1.60;;
84933;SDS011;75195;56.858;41.422;2024-01-15T04:29:10;3.03;;;1.73;;
84933;SDS011;75195;56.858;41.422;2024-01-15T04:31:36;2.85;;;1.05;;
84933;SDS011;75195;56.858;41.422;2024-01-15T04:34:02;8.73;;;1.42;;
84933;SDS011;75195;56.858;41.422;2024-01-15T04:36:28;1.60;;;1.42;;
84933;SDS011;75195;56.858;41.422;2024-01-15T04:38:54;4.55;;;1.67;;
84933;SDS011;75195;56.858;41.422;2024-01-15T04:41:20;2.65;;;1.30;;
84933;SDS011;75195;56.858;41.422;2024-01-15T04:43:47;1.85;;;1.33;;
84933;SDS011;75195;56.858;41.422;2024-01-15T04:46:14;2.42;;;1.55;;
84933;SDS011;75195;56.858;41.422;2024-01-15T04:48:41;2.80;;;1.92;;
84933;SDS011;75195;56.858;41.422;2024-01-15T04:51:08;2.70;;;1.40;;
84933;SDS011;75195;56.858;41.422;2024-01-15T04:53:34;2.20;;;0.73;;
84933;SDS011;75195;56.858;41.422;2024-01-15T04:56:01;3.08;;;1.60;;
84933;SDS011;75195;56.858;41.422;2024-01-15T04:58:27;2.70;;;1.50;;
84933;SDS011;75195;56.858;41.422;2024-01-15T05:00:54;5.03;;;1.40;;
84933;SDS011;75195;56.858;41.422;2024-01-15T05:03:39;1.88;;;1.45;;
84933;SDS011;75195;56.858;41.422;2024-01-15T05:06:05;11.23;;;2.28;;
84933;SDS011;75195;56.858;41.422;2024-01-15T05:08:32;3.42;;;1.70;;
84933;SDS011;75195;56.858;41.422;2024-01-15T05:10:58;4.05;;;1.67;;
84933;SDS011;75195;56.858;41.422;2024-01-15T05:13:24;2.92;;;1.23;;
84933;SDS011;75195;56.858;41.422;2024-01-15T05:15:50;15.45;;;1.92;;
84933;SDS011;75195;56.858;41.422;2024-01-15T05:18:17;1.00;;;0.52;;
84933;SDS011;75195;56.858;41.422;2024-01-15T05:20:43;2.30;;;1.38;;
84933;SDS011;75195;56.858;41.422;2024-01-15T05:23:28;3.63;;;1.63;;
84933;SDS011;75195;56.858;41.422;2024-01-15T05:25:57;2.35;;;1.40;;
84933;SDS011;75195;56.858;41.422;2024-01-15T05:28:23;3.42;;;1.30;;
84933;SDS011;75195;56.858;41.422;2024-01-15T05:30:49;4.28;;;1.98;;
84933;SDS011;75195;56.858;41.422;2024-01-15T05:33:18;1.70;;;1.05;;
84933;SDS011;75195;56.858;41.422;2024-01-15T05:35:44;3.28;;;1.65;;
84933;SDS011;75195;56.858;41.422;2024-01-15T05:38:10;3.17;;;1.75;;
84933;SDS011;75195;56.858;41.422;2024-01-15T05:40:36;1.40;;;1.15;;
84933;SDS011;75195;56.858;41.422;2024-01-15T05:43:03;3.88;;;1.40;;
84933;SDS011;75195;56.858;41.422;2024-01-15T05:45:30;3.20;;;1.65;;
84933;SDS011;75195;56.858;41.422;2024-01-15T05:47:56;2.38;;;1.42;;
84933;SDS011;75195;56.858;41.422;2024-01-15T05:50:22;2.75;;;1.23;;
84933;SDS011;75195;56.858;41.422;2024-01-15T05:52:49;2.85;;;1.70;;
84933;SDS011;75195;56.858;41.422;2024-01-15T05:55:15;3.58;;;2.15;;
84933;SDS011;75195;56.858;41.422;2024-01-15T05:57:41;2.47;;;1.20;;
84933;SDS011;75195;56.858;41.422;2024-01-15T06:00:07;3.33;;;1.17;;
84933;SDS011;75195;56.858;41.422;2024-01-15T06:02:39;5.22;;;1.48;;
84933;SDS011;75195;56.858;41.422;2024-01-15T06:05:05;3.28;;;1.75;;
84933;SDS011;75195;56.858;41.422;2024-01-15T06:07:36;2.33;;;1.30;;
84933;SDS011;75195;56.858;41.422;2024-01-15T06:10:21;4.78;;;2.03;;
84933;SDS011;75195;56.858;41.422;2024-01-15T06:12:47;3.72;;;1.42;;
84933;SDS011;75195;56.858;41.422;2024-01-15T06:15:13;2.13;;;1.05;;
84933;SDS011;75195;56.858;41.422;2024-01-15T06:17:39;3.38;;;1.48;;
84933;SDS011;75195;56.858;41.422;2024-01-15T06:20:05;2.42;;;1.48;;
84933;SDS011;75195;56.858;41.422;2024-01-15T06:22:32;3.90;;;2.10;;
84933;SDS011;75195;56.858;41.422;2024-01-15T06:24:59;2.40;;;1.23;;
84933;SDS011;75195;56.858;41.422;2024-01-15T06:32:55;2.78;;;1.45;;
84933;SDS011;75195;56.858;41.422;2024-01-15T06:35:22;2.63;;;1.13;;
84933;SDS011;75195;56.858;41.422;2024-01-15T06:37:48;3.92;;;1.73;;
84933;SDS011;75195;56.858;41.422;2024-01-15T06:40:14;2.03;;;1.63;;
84933;SDS011;75195;56.858;41.422;2024-01-15T06:42:41;3.25;;;1.55;;
84933;SDS011;75195;56.858;41.422;2024-01-15T06:45:07;3.30;;;1.15;;
84933;SDS011;75195;56.858;41.422;2024-01-15T06:47:34;4.20;;;1.70;;
84933;SDS011;75195;56.858;41.422;2024-01-15T06:50:00;6.40;;;2.58;;
84933;SDS011;75195;56.858;41.422;2024-01-15T06:52:26;3.55;;;1.77;;
84933;SDS011;75195;56.858;41.422;2024-01-15T06:54:52;6.38;;;2.15;;
84933;SDS011;75195;56.858;41.422;2024-01-15T06:57:18;6.72;;;2.63;;
84933;SDS011;75195;56.858;41.422;2024-01-15T06:59:46;4.78;;;2.42;;
84933;SDS011;75195;56.858;41.422;2024-01-15T07:02:12;3.47;;;1.48;;
84933;SDS011;75195;56.858;41.422;2024-01-15T07:04:38;6.82;;;2.42;;
84933;SDS011;75195;56.858;41.422;2024-01-15T07:07:05;3.42;;;1.75;;
84933;SDS011;75195;56.858;41.422;2024-01-15T07:09:31;1.85;;;0.85;;
84933;SDS011;75195;56.858;41.422;2024-01-15T07:11:57;7.00;;;2.28;;
84933;SDS011;75195;56.858;41.422;2024-01-15T07:14:23;2.60;;;1.63;;
84933;SDS011;75195;56.858;41.422;2024-01-15T07:16:50;6.35;;;2.00;;
84933;SDS011;75195;56.858;41.422;2024-01-15T07:22:00;2.95;;;2.03;;
84933;SDS011;75195;56.858;41.422;2024-01-15T07:27:11;7.07;;;1.60;;
84933;SDS011;75195;56.858;41.422;2024-01-15T07:29:37;3.85;;;2.08;;
84933;SDS011;75195;56.858;41.422;2024-01-15T07:34:48;2.15;;;1.75;;
84933;SDS011;75195;56.858;41.422;2024-01-15T07:40:00;4.10;;;1.63;;
84933;SDS011;75195;56.858;41.422;2024-01-15T07:42:44;6.38;;;2.13;;
84933;SDS011;75195;56.858;41.422;2024-01-15T07:45:10;2.25;;;1.10;;
84933;SDS011;75195;56.858;41.422;2024-01-15T07:47:37;3.72;;;1.92;;
84933;SDS011;75195;56.858;41.422;2024-01-15T07:50:03;2.67;;;1.88;;
84933;SDS011;75195;56.858;41.422;2024-01-15T07:52:30;6.38;;;2.08;;
84933;SDS011;75195;56.858;41.422;2024-01-15T07:54:57;4.72;;;1.90;;
84933;SDS011;75195;56.858;41.422;2024-01-15T07:57:25;6.10;;;2.05;;
84933;SDS011;75195;56.858;41.422;2024-01-15T07:59:51;7.63;;;2.15;;
84933;SDS011;75195;56.858;41.422;2024-01-15T08:02:36;3.50;;;1.80;;
84933;SDS011;75195;56.858;41.422;2024-01-15T08:05:02;5.00;;;1.98;;
84933;SDS011;75195;56.858;41.422;2024-01-15T08:07:29;6.13;;;2.70;;
84933;SDS011;75195;56.858;41.422;2024-01-15T08:12:40;3.22;;;1.45;;
84933;SDS011;75195;56.858;41.422;2024-01-15T08:15:07;6.43;;;2.20;;
84933;SDS011;75195;56.858;41.422;2024-01-15T08:17:33;4.55;;;1.60;;
84933;SDS011;75195;56.858;41.422;2024-01-15T08:19:59;5.15;;;2.05;;
84933;SDS011;75195;56.858;41.422;2024-01-15T08:22:27;4.32;;;1.98;;
84933;SDS011;75195;56.858;41.422;2024-01-15T08:24:54;4.75;;;2.35;;
84933;SDS011;75195;56.858;41.422;2024-01-15T08:27:21;5.80;;;2.75;;
84933;SDS011;75195;56.858;41.422;2024-01-15T08:29:47;5.70;;;2.22;;
84933;SDS011;75195;56.858;41.422;2024-01-15T08:34:57;5.72;;;2.42;;
84933;SDS011;75195;56.858;41.422;2024-01-15T08:37:24;3.28;;;1.52;;
84933;SDS011;75195;56.858;41.422;2024-01-15T08:39:50;6.40;;;2.50;;
84933;SDS011;75195;56.858;41.422;2024-01-15T08:42:16;6.93;;;1.55;;
84933;SDS011;75195;56.858;41.422;2024-01-15T08:44:43;3.45;;;1.52;;
84933;SDS011;75195;56.858;41.422;2024-01-15T08:47:09;4.00;;;2.08;;
84933;SDS011;75195;56.858;41.422;2024-01-15T08:49:35;4.10;;;2.28;;
84933;SDS011;75195;56.858;41.422;2024-01-15T08:52:02;4.00;;;1.63;;
84933;SDS011;75195;56.858;41.422;2024-01-15T08:54:28;3.72;;;1.73;;
84933;SDS011;75195;56.858;41.422;2024-01-15T08:56:55;9.32;;;2.83;;
84933;SDS011;75195;56.858;41.422;2024-01-15T08:59:21;7.05;;;2.15;;
84933;SDS011;75195;56.858;41.422;2024-01-15T09:01:51;5.07;;;2.55;;
84933;SDS011;75195;56.858;41.422;2024-01-15T09:04:18;2.40;;;1.77;;
84933;SDS011;75195;56.858;41.422;2024-01-15T09:06:45;5.45;;;1.95;;
84933;SDS011;75195;56.858;41.422;2024-01-15T09:09:15;5.35;;;1.83;;
84933;SDS011;75195;56.858;41.422;2024-01-15T09:11:41;7.85;;;2.58;;
84933;SDS011;75195;56.858;41.422;2024-01-15T09:14:07;4.85;;;1.75;;
84933;SDS011;75195;56.858;41.422;2024-01-15T09:16:35;5.70;;;2.45;;
84933;SDS011;75195;56.858;41.422;2024-01-15T09:19:01;3.72;;;2.35;;
84933;SDS011;75195;56.858;41.422;2024-01-15T09:21:27;4.95;;;2.53;;
84933;SDS011;75195;56.858;41.422;2024-01-15T09:23:53;3.97;;;2.97;;
84933;SDS011;75195;56.858;41.422;2024-01-15T09:26:19;4.10;;;2.05;;
84933;SDS011;75195;56.858;41.422;2024-01-15T09:28:46;7.75;;;3.45;;
84933;SDS011;75195;56.858;41.422;2024-01-15T09:31:12;4.95;;;2.72;;
84933;SDS011;75195;56.858;41.422;2024-01-15T09:33:39;3.55;;;2.25;;
84933;SDS011;75195;56.858;41.422;2024-01-15T09:36:05;5.07;;;3.03;;
84933;SDS011;75195;56.858;41.422;2024-01-15T09:38:32;7.20;;;3.85;;
84933;SDS011;75195;56.858;41.422;2024-01-15T09:40:58;3.83;;;2.78;;
84933;SDS011;75195;56.858;41.422;2024-01-15T09:43:24;6.90;;;4.63;;
84933;SDS011;75195;56.858;41.422;2024-01-15T09:45:50;5.68;;;3.00;;
84933;SDS011;75195;56.858;41.422;2024-01-15T09:48:17;6.30;;;3.67;;
84933;SDS011;75195;56.858;41.422;2024-01-15T09:50:43;5.13;;;3.10;;
84933;SDS011;75195;56.858;41.422;2024-01-15T09:53:09;5.85;;;2.97;;
84933;SDS011;75195;56.858;41.422;2024-01-15T09:55:36;5.78;;;2.38;;
84933;SDS011;75195;56.858;41.422;2024-01-15T09:58:05;5.78;;;2.05;;
84933;SDS011;75195;56.858;41.422;2024-01-15T10:00:32;8.00;;;2.67;;
84933;SDS011;75195;56.858;41.422;2024-01-15T10:03:18;3.88;;;2.17;;
84933;SDS011;75195;56.858;41.422;2024-01-15T10:05:44;2.92;;;1.83;;
84933;SDS011;75195;56.858;41.422;2024-01-15T10:08:10;3.85;;;2.13;;
84933;SDS011;75195;56.858;41.422;2024-01-15T10:10:37;5.60;;;2.50;;
84933;SDS011;75195;56.858;41.422;2024-01-15T10:13:03;4.43;;;1.92;;
84933;SDS011;75195;56.858;41.422;2024-01-15T10:15:33;6.45;;;3.25;;
84933;SDS011;75195;56.858;41.422;2024-01-15T10:18:02;5.20;;;2.67;;
84933;SDS011;75195;56.858;41.422;2024-01-15T10:20:31;6.50;;;3.00;;
84933;SDS011;75195;56.858;41.422;2024-01-15T10:22:58;6.63;;;2.55;;
84933;SDS011;75195;56.858;41.422;2024-01-15T10:25:25;4.72;;;1.92;;
84933;SDS011;75195;56.858;41.422;2024-01-15T10:28:01;11.48;;;3.20;;
84933;SDS011;75195;56.858;41.422;2024-01-15T10:30:28;5.30;;;2.85;;
84933;SDS011;75195;56.858;41.422;2024-01-15T10:32:58;4.07;;;2.28;;
84933;SDS011;75195;56.858;41.422;2024-01-15T10:35:31;4.82;;;2.70;;
84933;SDS011;75195;56.858;41.422;2024-01-15T10:38:02;7.53;;;3.03;;
84933;SDS011;75195;56.858;41.422;2024-01-15T10:40:29;5.70;;;2.63;;
84933;SDS011;75195;56.858;41.422;2024-01-15T10:42:55;3.13;;;2.40;;
84933;SDS011;75195;56.858;41.422;2024-01-15T10:45:22;4.68;;;2.58;;
84933;SDS011;75195;56.858;41.422;2024-01-15T10:47:48;5.50;;;2.70;;
84933;SDS011;75195;56.858;41.422;2024-01-15T10:50:14;6.93;;;3.13;;
84933;SDS011;75195;56.858;41.422;2024-01-15T10:52:41;5.72;;;2.60;;
84933;SDS011;75195;56.858;41.422;2024-01-15T10:55:09;3.60;;;2.20;;
84933;SDS011;75195;56.858;41.422;2024-01-15T10:57:38;3.95;;;2.33;;
84933;SDS011;75195;56.858;41.422;2024-01-15T11:00:05;5.60;;;2.67;;
84933;SDS011;75195;56.858;41.422;2024-01-15T11:02:36;3.83;;;2.38;;
84933;SDS011;75195;56.858;41.422;2024-01-15T11:05:03;5.00;;;2.85;;
84933;SDS011;75195;56.858;41.422;2024-01-15T11:07:29;4.82;;;2.17;;
84933;SDS011;75195;56.858;41.422;2024-01-15T11:09:56;3.40;;;2.42;;
84933;SDS011;75195;56.858;41.422;2024-01-15T11:12:26;5.43;;;2.70;;
84933;SDS011;75195;56.858;41.422;2024-01-15T11:14:52;6.70;;;2.58;;
84933;SDS011;75195;56.858;41.422;2024-01-15T11:17:33;4.18;;;2.03;;
84933;SDS011;75195;56.858;41.422;2024-01-15T11:20:31;2.83;;;1.85;;
84933;SDS011;75195;56.858;41.422;2024-01-15T11:22:58;5.85;;;3.08;;
84933;SDS011;75195;56.858;41.422;2024-01-15T11:25:25;5.60;;;2.95;;
84933;SDS011;75195;56.858;41.422;2024-01-15T11:28:02;3.33;;;2.10;;
84933;SDS011;75195;56.858;41.422;2024-01-15T11:30:28;3.83;;;2.22;;
84933;SDS011;75195;56.858;41.422;2024-01-15T11:32:55;5.93;;;2.75;;
84933;SDS011;75195;56.858;41.422;2024-01-15T11:35:21;3.05;;;1.77;;
84933;SDS011;75195;56.858;41.422;2024-01-15T11:43:02;6.40;;;2.67;;
84933;SDS011;75195;56.858;41.422;2024-01-15T11:45:29;3.25;;;1.67;;
84933;SDS011;75195;56.858;41.422;2024-01-15T11:48:09;4.28;;;2.45;;
84933;SDS011;75195;56.858;41.422;2024-01-15T11:50:40;5.57;;;2.17;;
84933;SDS011;75195;56.858;41.422;2024-01-15T11:53:16;4.35;;;2.22;;
84933;SDS011;75195;56.858;41.422;2024-01-15T11:56:01;7.25;;;2.78;;
84933;SDS011;75195;56.858;41.422;2024-01-15T11:58:28;3.88;;;2.25;;
84933;SDS011;75195;56.858;41.422;2024-01-15T12:00:54;5.13;;;2.47;;
84933;SDS011;75195;56.858;41.422;2024-01-15T12:03:21;2.33;;;1.58;;
84933;SDS011;75195;56.858;41.422;2024-01-15T12:05:48;7.20;;;2.70;;
84933;SDS011;75195;56.858;41.422;2024-01-15T12:08:14;7.00;;;3.05;;
84933;SDS011;75195;56.858;41.422;2024-01-15T12:10:41;8.05;;;3.50;;
84933;SDS011;75195;56.858;41.422;2024-01-15T12:13:11;5.47;;;2.25;;
84933;SDS011;75195;56.858;41.422;2024-01-15T12:18:08;8.25;;;2.85;;
84933;SDS011;75195;56.858;41.422;2024-01-15T12:20:35;5.88;;;2.83;;
84933;SDS011;75195;56.858;41.422;2024-01-15T12:23:01;7.90;;;2.65;;
84933;SDS011;75195;56.858;41.422;2024-01-15T12:28:31;6.85;;;3.22;;
84933;SDS011;75195;56.858;41.422;2024-01-15T12:30:57;4.72;;;2.20;;
84933;SDS011;75195;56.858;41.422;2024-01-15T12:36:12;5.57;;;3.40;;
84933;SDS011;75195;56.858;41.422;2024-01-15T12:38:39;4.70;;;2.20;;
84933;SDS011;75195;56.858;41.422;2024-01-15T12:41:23;5.25;;;2.38;;
84933;SDS011;75195;56.858;41.422;2024-01-15T12:43:50;5.82;;;2.38;;
84933;SDS011;75195;56.858;41.422;2024-01-15T12:46:16;5.32;;;2.47;;
84933;SDS011;75195;56.858;41.422;2024-01-15T12:48:43;7.28;;;2.80;;
84933;SDS011;75195;56.858;41.422;2024-01-15T12:51:09;12.15;;;3.08;;
84933;SDS011;75195;56.858;41.422;2024-01-15T12:53:35;3.53;;;2.97;;
84933;SDS011;75195;56.858;41.422;2024-01-15T12:56:01;6.82;;;2.55;;
84933;SDS011;75195;56.858;41.422;2024-01-15T12:58:28;4.35;;;2.20;;
84933;SDS011;75195;56.858;41.422;2024-01-15T13:00:54;6.90;;;3.80;;
84933;SDS011;75195;56.858;41.422;2024-01-15T13:03:22;8.63;;;2.83;;
84933;SDS011;75195;56.858;41.422;2024-01-15T13:08:33;5.80;;;2.58;;
84933;SDS011;75195;56.858;41.422;2024-01-15T13:10:59;8.25;;;2.83;;
84933;SDS011;75195;56.858;41.422;2024-01-15T13:13:26;6.93;;;2.85;;
84933;SDS011;75195;56.858;41.422;2024-01-15T13:15:53;6.63;;;2.38;;
84933;SDS011;75195;56.858;41.422;2024-01-15T13:18:19;6.32;;;2.63;;
84933;SDS011;75195;56.858;41.422;2024-01-15T13:20:45;16.08;;;2.65;;
84933;SDS011;75195;56.858;41.422;2024-01-15T13:23:11;7.97;;;2.75;;
84933;SDS011;75195;56.858;41.422;2024-01-15T13:25:56;7.03;;;2.72;;
84933;SDS011;75195;56.858;41.422;2024-01-15T13:28:23;9.35;;;2.47;;
84933;SDS011;75195;56.858;41.422;2024-01-15T13:30:50;6.20;;;2.65;;
84933;SDS011;75195;56.858;41.422;2024-01-15T13:33:16;4.05;;;2.17;;
84933;SDS011;75195;56.858;41.422;2024-01-15T13:36:00;3.90;;;1.85;;
84933;SDS011;75195;56.858;41.422;2024-01-15T13:38:47;4.18;;;1.95;;
84933;SDS011;75195;56.858;41.422;2024-01-15T13:41:34;5.00;;;2.92;;
84933;SDS011;75195;56.858;41.422;2024-01-15T13:44:01;5.20;;;1.70;;
84933;SDS011;75195;56.858;41.422;2024-01-15T13:46:28;5.63;;;2.45;;
84933;SDS011;75195;56.858;41.422;2024-01-15T13:49:13;5.13;;;2.65;;
84933;SDS011;75195;56.858;41.422;2024-01-15T13:51:40;5.68;;;2.65;;
84933;SDS011;75195;56.858;41.422;2024-01-15T13:54:24;12.48;;;3.22;;
84933;SDS011;75195;56.858;41.422;2024-01-15T13:56:51;4.32;;;2.20;;
84933;SDS011;75195;56.858;41.422;2024-01-15T13:59:17;6.05;;;2.60;;
84933;SDS011;75195;56.858;41.422;2024-01-15T14:01:43;6.05;;;2.95;;
84933;SDS011;75195;56.858;41.422;2024-01-15T14:04:28;5.40;;;2.47;;
84933;SDS011;75195;56.858;41.422;2024-01-15T14:06:54;7.35;;;3.13;;
84933;SDS011;75195;56.858;41.422;2024-01-15T14:09:20;6.13;;;2.90;;
84933;SDS011;75195;56.858;41.422;2024-01-15T14:11:47;5.57;;;2.45;;
84933;SDS011;75195;56.858;41.422;2024-01-15T14:14:14;3.60;;;2.13;;
84933;SDS011;75195;56.858;41.422;2024-01-15T14:16:40;7.18;;;3.95;;
84933;SDS011;75195;56.858;41.422;2024-01-15T14:19:06;4.15;;;2.65;;
84933;SDS011;75195;56.858;41.422;2024-01-15T14:21:35;4.82;;;3.03;;
84933;SDS011;75195;56.858;41.422;2024-01-15T14:24:01;4.43;;;2.67;;
84933;SDS011;75195;56.858;41.422;2024-01-15T14:26:46;12.15;;;5.10;;
84933;SDS011;75195;56.858;41.422;2024-01-15T14:29:12;12.77;;;5.60;;
84933;SDS011;75195;56.858;41.422;2024-01-15T14:31:38;13.55;;;5.35;;
84933;SDS011;75195;56.858;41.422;2024-01-15T14:34:04;9.00;;;3.53;;
84933;SDS011;75195;56.858;41.422;2024-01-15T14:36:31;9.60;;;3.33;;
84933;SDS011;75195;56.858;41.422;2024-01-15T14:38:57;5.55;;;3.05;;
84933;SDS011;75195;56.858;41.422;2024-01-15T14:41:41;7.03;;;3.35;;
84933;SDS011;75195;56.858;41.422;2024-01-15T14:44:08;12.65;;;3.30;;
84933;SDS011;75195;56.858;41.422;2024-01-15T14:49:39;6.50;;;2.47;;
84933;SDS011;75195;56.858;41.422;2024-01-15T14:52:05;4.05;;;2.38;;
84933;SDS011;75195;56.858;41.422;2024-01-15T14:54:32;4.55;;;1.90;;
84933;SDS011;75195;56.858;41.422;2024-01-15T14:57:17;14.10;;;5.68;;
84933;SDS011;75195;56.858;41.422;2024-01-15T14:59:44;10.10;;;4.85;;
84933;SDS011;75195;56.858;41.422;2024-01-15T15:02:10;8.52;;;3.75;;
84933;SDS011;75195;56.858;41.422;2024-01-15T15:04:37;9.35;;;2.75;;
84933;SDS011;75195;56.858;41.422;2024-01-15T15:07:03;6.90;;;3.13;;
84933;SDS011;75195;56.858;41.422;2024-01-15T15:09:31;2.83;;;1.70;;
84933;SDS011;75195;56.858;41.422;2024-01-15T15:11:58;9.05;;;3.42;;
84933;SDS011;75195;56.858;41.422;2024-01-15T15:14:24;6.53;;;2.47;;
84933;SDS011;75195;56.858;41.422;2024-01-15T15:17:09;6.43;;;2.90;;
84933;SDS011;75195;56.858;41.422;2024-01-15T15:19:35;3.25;;;1.92;;
84933;SDS011;75195;56.858;41.422;2024-01-15T15:22:01;5.45;;;2.42;;
84933;SDS011;75195;56.858;41.422;2024-01-15T15:24:28;3.65;;;2.03;;
84933;SDS011;75195;56.858;41.422;2024-01-15T15:26:54;3.95;;;2.05;;
84933;SDS011;75195;56.858;41.422;2024-01-15T15:29:20;8.90;;;3.17;;
84933;SDS011;75195;56.858;41.422;2024-01-15T15:31:48;7.75;;;2.53;;